Time;durP1;ratioP1;P1;durP2;ratioP2;P2;SDS_P1;SDS_P2;PMS_P1;PMS_P2;Temp;Humidity;BMP_temperature;BMP_pressure;BME280_temperature;BME280_humidity;BME280_pressure;Samples;Min_cycle;Max_cycle;Signal;HPM_P1;HPM_P2
2023/03/24 00:00:20;;;;;;;6.82;2.28;;;11.30;99.90;;;-144.05;83.04;56923.19;5073376;28;20036;-76
2023/03/24 00:02:48;;;;;;;2.58;1.75;;;11.40;99.90;;;-144.05;83.38;56950.78;5072921;28;20025;-77
2023/03/24 00:05:19;;;;;;;4.82;2.05;;;11.40;99.90;;;-144.05;83.74;56938.03;5071854;28;20364;-75
2023/03/24 00:07:47;;;;;;;7.38;1.70;;;11.40;99.90;;;-144.05;83.60;56965.66;5071887;28;20028;-75
2023/03/24 00:10:19;;;;;;;3.47;1.83;;;11.40;99.90;;;-144.05;84.16;56929.53;5071280;28;20070;-75
2023/03/24 00:12:46;;;;;;;3.42;1.83;;;11.40;99.90;;;-144.05;84.13;56938.03;5071929;28;20021;-77
2023/03/24 00:15:19;;;;;;;4.95;2.00;;;11.40;99.90;;;-144.05;84.24;56927.41;5053797;28;20053;-76
2023/03/24 00:17:51;;;;;;;3.58;1.67;;;11.40;99.90;;;-144.05;83.67;56959.28;5071869;28;20028;-75
2023/03/24 00:20:21;;;;;;;3.30;1.77;;;11.40;99.90;;;-144.05;84.04;56952.91;5053473;28;20028;-76
2023/03/24 00:22:57;;;;;;;2.00;1.30;;;11.40;99.90;;;-144.05;84.38;56931.66;5053375;28;20040;-76
2023/03/24 00:25:34;;;;;;;3.40;1.60;;;11.40;99.90;;;-144.05;84.02;56965.66;5071484;28;20044;-76
2023/03/24 00:28:04;;;;;;;2.97;1.73;;;11.40;99.90;;;-144.05;84.21;56942.28;5071962;28;20047;-76
2023/03/24 00:30:30;;;;;;;4.63;1.88;;;11.40;99.90;;;-144.05;84.49;56955.03;5071365;28;20488;-76
2023/03/24 00:32:57;;;;;;;4.13;1.60;;;11.40;99.90;;;-144.05;84.16;56929.53;5072066;28;20078;-76
2023/03/24 00:35:23;;;;;;;4.20;2.22;;;11.50;99.90;;;-144.05;84.01;56931.66;5071423;28;20024;-76
2023/03/24 00:37:50;;;;;;;4.53;1.48;;;11.50;99.90;;;-144.05;84.45;56931.66;5070891;28;20128;-76
2023/03/24 00:40:20;;;;;;;2.25;1.40;;;11.50;99.90;;;-144.05;84.62;56923.19;5070842;28;20025;-75
2023/03/24 00:42:48;;;;;;;2.67;1.30;;;11.50;99.90;;;-144.05;84.23;56974.16;5071248;28;20518;-77
2023/03/24 00:45:21;;;;;;;5.32;1.77;;;11.50;99.90;;;-144.05;84.53;56955.03;5071008;28;20032;-76
2023/03/24 00:47:52;;;;;;;3.25;1.80;;;11.50;99.90;;;-144.05;83.81;56929.53;5071034;28;20021;-77
2023/03/24 00:50:25;;;;;;;3.88;1.67;;;11.50;99.90;;;-144.05;83.57;56950.78;5052501;28;20047;-77
2023/03/24 00:52:52;;;;;;;2.50;1.33;;;11.60;99.90;;;-144.05;83.56;56942.28;5053771;28;20039;-78
2023/03/24 00:55:20;;;;;;;3.83;1.58;;;11.60;99.90;;;-144.05;83.55;56935.91;5070671;28;20488;-75
2023/03/24 00:57:50;;;;;;;2.40;1.60;;;11.60;99.90;;;-144.05;83.29;56921.06;5071584;28;20074;-78
2023/03/24 01:00:25;;;;;;;3.17;1.50;;;11.70;99.90;;;-144.05;82.76;56929.53;5052970;28;20099;-76
2023/03/24 01:02:56;;;;;;;3.75;1.70;;;11.70;99.90;;;-144.05;82.76;56916.81;5071101;28;20028;-77
2023/03/24 01:05:29;;;;;;;2.60;1.23;;;11.70;99.90;;;-144.05;82.64;56948.66;5071103;28;20028;-76
2023/03/24 01:08:01;;;;;;;3.45;1.42;;;11.80;99.90;;;-144.05;83.34;56952.91;5071437;28;20024;-77
2023/03/24 01:10:31;;;;;;;2.10;1.15;;;11.80;99.90;;;-144.05;83.47;56940.16;5071758;28;20032;-78
2023/03/24 01:13:00;;;;;;;1.85;1.50;;;11.80;99.90;;;-144.05;83.50;56935.91;5053644;28;20032;-75
2023/03/24 01:15:32;;;;;;;3.63;1.52;;;11.80;99.90;;;-144.05;84.56;56959.28;5071480;28;20111;-75
2023/03/24 01:18:02;;;;;;;3.40;2.05;;;11.70;99.90;;;-144.05;83.99;56961.41;5052531;28;20041;-76
2023/03/24 01:20:34;;;;;;;2.70;1.55;;;11.70;99.90;;;-144.05;83.91;56942.28;5071032;28;20488;-76
2023/03/24 01:23:06;;;;;;;3.33;1.50;;;11.80;99.90;;;-144.05;83.90;56929.53;5070857;28;20039;-76
2023/03/24 01:25:36;;;;;;;3.85;1.80;;;11.80;99.90;;;-144.05;83.40;56955.03;5052708;28;20025;-78
2023/03/24 01:28:02;;;;;;;4.70;1.60;;;11.80;99.90;;;-144.05;83.79;56921.06;5071155;28;20039;-76
2023/03/24 01:30:30;;;;;;;2.88;1.63;;;11.80;99.90;;;-144.05;83.31;56906.19;5071470;28;20028;-78
2023/03/24 01:32:56;;;;;;;4.68;2.00;;;11.80;99.90;;;-144.05;83.92;56940.16;5071330;28;20107;-77
2023/03/24 01:35:26;;;;;;;3.40;1.80;;;11.80;99.90;;;-144.05;84.38;56923.19;5071057;28;20082;-76
2023/03/24 01:37:52;;;;;;;2.38;1.25;;;11.80;99.90;;;-144.05;84.28;56931.66;5071374;28;20032;-75
2023/03/24 01:40:29;;;;;;;2.70;1.38;;;11.70;99.90;;;-144.05;84.71;56967.78;5071203;28;20476;-76
2023/03/24 01:42:57;;;;;;;2.92;1.65;;;11.80;99.90;;;-144.05;85.48;56929.53;5053004;28;20199;-76
2023/03/24 01:45:41;;;;;;;2.05;1.58;;;11.80;99.90;;;-144.05;86.32;56952.91;5070946;28;20055;-77
2023/03/24 01:48:37;;;;;;;5.20;1.80;;;11.80;99.90;;;-144.05;86.14;56916.81;5070099;28;20395;-75
2023/03/24 01:51:34;;;;;;;5.40;1.92;;;11.70;99.90;;;-144.05;86.19;56931.66;5052852;28;20035;-76
2023/03/24 01:54:16;;;;;;;3.38;1.83;;;11.70;99.90;;;-144.05;85.93;56935.91;5059622;28;20036;-78
2023/03/24 01:56:52;;;;;;;2.88;1.67;;;11.70;99.90;;;-144.05;86.12;56938.03;5072826;28;20028;-75
2023/03/24 01:59:28;;;;;;;4.55;2.28;;;11.70;99.90;;;-144.05;86.47;56946.53;5070707;28;20082;-76
2023/03/24 02:02:01;;;;;;;4.03;1.90;;;11.60;99.90;;;-144.05;86.22;56935.91;5070510;28;20040;-76
2023/03/24 02:04:37;;;;;;;3.35;2.03;;;11.60;99.90;;;-144.05;86.16;56944.41;5052420;28;20428;-75
2023/03/24 02:07:46;;;;;;;4.43;1.85;;;11.60;99.90;;;-144.05;85.93;56940.16;5072318;28;20487;-76
2023/03/24 02:10:17;;;;;;;3.72;2.22;;;11.70;99.90;;;-144.05;85.70;56918.94;5054692;28;20516;-77
2023/03/24 02:12:45;;;;;;;2.47;1.83;;;11.70;99.90;;;-144.05;85.28;56931.66;5074628;28;20055;-77
2023/03/24 02:15:16;;;;;;;2.08;1.67;;;11.70;99.90;;;-144.05;85.09;56933.78;5056069;28;20476;-75
2023/03/24 02:18:36;;;;;;;2.60;1.98;;;11.70;99.90;;;-144.05;85.01;56931.66;5074234;28;20039;-77
2023/03/24 02:21:29;;;;;;;2.17;1.67;;;11.80;99.90;;;-144.05;84.91;56944.41;5073925;28;20042;-75
2023/03/24 02:24:30;;;;;;;4.18;2.05;;;11.90;99.90;;;-144.05;84.47;56946.53;5055789;28;20035;-76
2023/03/24 02:27:47;;;;;;;4.47;2.10;;;12.00;99.90;;;-144.05;84.41;56948.66;5073501;28;20036;-77
2023/03/24 02:31:05;;;;;;;5.07;1.83;;;12.00;99.90;;;-144.05;84.76;56946.53;5073415;28;20382;-75
2023/03/24 02:34:29;;;;;;;4.85;1.88;;;12.00;99.90;;;-144.05;85.12;56944.41;5055489;28;20040;-76
2023/03/24 02:37:26;;;;;;;4.43;2.05;;;12.00;99.90;;;-144.05;85.76;56933.78;5073986;28;20399;-75
2023/03/24 02:40:36;;;;;;;2.03;1.85;;;12.10;99.90;;;-144.05;85.86;56944.41;5073323;28;20020;-75
2023/03/24 02:43:55;;;;;;;3.63;1.98;;;12.10;99.90;;;-144.05;86.39;56950.78;5018725;28;20045;-76
2023/03/24 02:47:14;;;;;;;2.97;2.15;;;12.10;99.90;;;-144.05;86.62;56929.53;5055966;28;20117;-74
2023/03/24 02:50:01;;;;;;;3.50;1.90;;;12.00;99.90;;;-144.05;86.45;56946.53;5073571;28;20032;-76
2023/03/24 02:53:15;;;;;;;3.17;1.80;;;12.00;99.90;;;-144.05;86.35;56944.41;5055237;28;20090;-75
2023/03/24 02:56:23;;;;;;;2.35;1.88;;;12.00;99.90;;;-144.05;86.04;56942.28;5073204;28;20115;-73
2023/03/24 02:58:58;;;;;;;;;;;12.10;99.90;;;-144.05;85.77;56929.53;5058259;28;20384;-78
2023/03/24 03:02:02;;;;;;;5.18;2.58;;;12.10;99.90;;;-144.05;85.60;56908.31;5073378;28;19912;-78
2023/03/24 03:05:04;;;;;;;4.10;2.13;;;12.10;99.90;;;-144.05;85.57;56940.16;5065361;28;20044;-76
2023/03/24 03:07:36;;;;;;;6.78;2.05;;;12.10;99.90;;;-144.05;85.05;56940.16;5073686;28;20059;-77
2023/03/24 03:10:23;;;;;;;3.80;2.10;;;12.10;99.90;;;-144.05;84.99;56946.53;5074366;28;20468;-75
2023/03/24 03:13:00;;;;;;;3.55;2.13;;;12.10;99.90;;;-144.05;85.17;56955.03;5073535;28;20031;-75
2023/03/24 03:15:42;;;;;;;5.53;2.55;;;12.10;99.90;;;-144.05;85.43;56942.28;5074228;28;20036;-75
2023/03/24 03:18:29;;;;;;;6.78;2.78;;;12.20;99.90;;;-144.05;85.22;56950.78;5072609;28;20028;-76
2023/03/24 03:21:08;;;;;;;3.00;2.10;;;12.20;99.90;;;-144.05;85.13;56946.53;5072755;28;20038;-76
2023/03/24 03:23:53;;;;;;;4.30;2.40;;;12.20;99.90;;;-144.05;84.93;56940.16;5073035;28;20056;-76
2023/03/24 03:26:27;;;;;;;4.15;2.00;;;12.20;99.90;;;-144.05;84.56;56963.53;5072732;28;20047;-74
2023/03/24 03:29:05;;;;;;;3.58;1.98;;;12.20;99.90;;;-144.05;84.53;56933.78;5072637;28;20069;-79
2023/03/24 03:31:43;;;;;;;3.17;2.20;;;12.30;99.90;;;-144.05;83.81;56931.66;5072738;28;20032;-76
2023/03/24 03:34:27;;;;;;;3.40;2.35;;;12.40;99.90;;;-144.05;83.73;56963.53;5054595;28;20032;-74
2023/03/24 03:38:09;;;;;;;4.03;2.17;;;12.40;99.90;;;-144.05;83.51;56931.66;5072710;28;20032;-75
2023/03/24 03:40:48;;;;;;;3.88;2.20;;;12.40;99.90;;;-144.05;83.63;56938.03;5036452;28;20057;-77
2023/03/24 03:43:15;;;;;;;2.92;2.20;;;12.40;99.90;;;-144.05;83.37;56942.28;5072837;28;20048;-75
2023/03/24 03:45:41;;;;;;;5.30;2.53;;;12.40;99.90;;;-144.05;82.92;56921.06;5072450;28;20444;-75
2023/03/24 03:48:08;;;;;;;4.65;2.30;;;12.50;99.90;;;-144.05;82.82;56916.81;5072464;28;20168;-75
2023/03/24 03:50:34;;;;;;;3.20;2.30;;;12.50;99.90;;;-144.05;83.34;56946.53;5072480;28;20079;-76
2023/03/24 03:53:00;;;;;;;3.85;2.03;;;12.40;99.90;;;-144.05;83.48;56952.91;5072432;28;20031;-77
2023/03/24 03:55:27;;;;;;;4.30;2.50;;;12.50;99.90;;;-144.05;83.72;56929.53;5072123;28;20107;-77
2023/03/24 03:57:54;;;;;;;3.10;2.55;;;12.50;99.90;;;-144.05;83.61;56963.53;5072970;28;20050;-77
2023/03/24 04:00:21;;;;;;;4.88;2.13;;;12.50;99.90;;;-144.05;83.74;56923.19;5072719;28;20549;-76
2023/03/24 04:03:35;;;;;;;4.72;2.03;;;12.50;99.90;;;-144.05;83.14;56923.19;5072771;28;20631;-77
2023/03/24 04:06:43;;;;;;;3.20;2.20;;;12.60;99.90;;;-144.05;83.94;56946.53;5050338;28;20043;-76
2023/03/24 04:09:27;;;;;;;;;;;12.50;99.90;;;-144.05;85.77;56957.16;5072994;28;20496;-75
2023/03/24 04:12:47;;;;;;;2.40;2.10;;;12.50;99.90;;;-144.05;87.08;56942.28;5054399;28;19951;-75
2023/03/24 04:15:34;;;;;;;3.60;2.60;;;12.30;99.90;;;-144.05;88.21;56933.78;5054472;28;20028;-78
2023/03/24 04:18:58;;;;;;;6.57;3.47;;;12.20;99.90;;;-144.05;89.14;56948.66;5053996;28;20032;-77
2023/03/24 04:22:08;;;;;;;5.68;3.20;;;12.20;99.90;;;-144.05;89.77;56942.28;4999214;28;20412;-76
2023/03/24 04:24:53;;;;;;;6.35;3.58;;;12.10;99.90;;;-144.05;90.54;56925.28;5072120;28;20032;-77
2023/03/24 04:27:49;;;;;;;5.38;3.50;;;12.10;99.90;;;-144.05;90.67;56933.78;5071939;28;20108;-76
2023/03/24 04:30:42;;;;;;;5.43;3.53;;;12.00;99.90;;;-144.05;90.45;56935.91;5052854;28;20388;-76
2023/03/24 04:33:21;;;;;;;6.60;3.63;;;12.00;99.90;;;-144.05;90.71;56935.91;5071337;28;20043;-75
2023/03/24 04:36:17;;;;;;;6.75;3.40;;;12.00;99.90;;;-144.05;89.56;56935.91;5072147;28;20024;-77
2023/03/24 04:38:52;;;;;;;7.50;3.42;;;12.00;99.90;;;-144.05;88.84;56955.03;5075800;28;20104;-78
2023/03/24 04:41:24;;;;;;;7.80;4.32;;;11.90;99.90;;;-144.05;88.48;56957.16;5058256;28;20029;-80
2023/03/24 04:43:54;;;;;;;9.20;4.65;;;11.90;99.90;;;-144.05;89.89;56946.53;5056773;28;20097;-78
2023/03/24 04:46:22;;;;;;;4.10;3.20;;;11.90;99.90;;;-144.05;90.67;56925.28;5073836;28;20536;-76
2023/03/24 04:48:48;;;;;;;5.47;2.90;;;11.80;99.90;;;-144.05;90.87;56942.28;5073175;28;20068;-77
2023/03/24 04:51:20;;;;;;;3.40;1.90;;;11.80;99.90;;;-144.05;90.31;56944.41;5073216;28;20039;-76
2023/03/24 04:53:47;;;;;;;4.57;2.10;;;11.80;99.90;;;-144.05;90.50;56933.78;5072803;28;20024;-75
2023/03/24 04:56:44;;;;;;;3.47;1.92;;;11.80;99.90;;;-144.05;90.40;56935.91;5053940;28;20036;-75
2023/03/24 04:59:11;;;;;;;4.50;2.03;;;11.80;99.90;;;-144.05;90.32;56931.66;5072257;28;20024;-77
2023/03/24 05:01:37;;;;;;;2.78;1.60;;;11.80;99.90;;;-144.05;89.59;56946.53;5071627;28;20064;-75
2023/03/24 05:04:05;;;;;;;2.03;1.20;;;11.80;99.90;;;-144.05;88.87;56935.91;5071891;28;20033;-78
2023/03/24 05:06:32;;;;;;;3.03;1.30;;;11.80;99.90;;;-144.05;88.02;56938.03;5071888;28;20032;-74
2023/03/24 05:08:58;;;;;;;1.70;1.10;;;11.80;99.90;;;-144.05;87.97;56942.28;5053237;28;20032;-75
2023/03/24 05:11:27;;;;;;;3.10;1.38;;;11.80;99.90;;;-144.05;87.25;56952.91;5071434;28;20032;-75
2023/03/24 05:13:54;;;;;;;3.80;1.40;;;11.90;99.90;;;-144.05;86.97;56948.66;5072070;28;20701;-75
2023/03/24 05:16:21;;;;;;;3.72;2.28;;;11.80;99.90;;;-144.05;87.37;56959.28;5071235;28;20552;-76
2023/03/24 05:18:46;;;;;;;2.33;1.70;;;11.80;99.90;;;-144.05;87.75;56935.91;5052615;28;20081;-76
2023/03/24 05:21:12;;;;;;;3.15;1.52;;;11.90;99.90;;;-144.05;87.18;56955.03;5053057;28;20028;-75
2023/03/24 05:23:38;;;;;;;4.82;1.67;;;11.90;99.90;;;-144.05;87.09;56948.66;5071151;28;20025;-75
2023/03/24 05:26:05;;;;;;;4.35;1.98;;;11.90;99.90;;;-144.05;87.10;56935.91;5071231;28;20531;-75
2023/03/24 05:28:31;;;;;;;4.22;2.70;;;11.90;99.90;;;-144.05;87.28;56938.03;5071202;28;20024;-78
2023/03/24 05:30:57;;;;;;;2.72;1.73;;;11.90;99.90;;;-144.05;86.59;56950.78;5071609;28;20103;-77
2023/03/24 05:33:23;;;;;;;3.55;2.30;;;12.00;99.90;;;-144.05;85.67;56963.53;5072432;28;20028;-77
2023/03/24 05:35:49;;;;;;;2.33;1.90;;;11.90;99.90;;;-144.05;85.78;56950.78;5056100;28;20035;-76
2023/03/24 05:38:15;;;;;;;3.33;1.98;;;11.90;99.90;;;-144.05;86.08;56944.41;5071469;28;20391;-77
2023/03/24 05:40:41;;;;;;;3.03;2.10;;;11.80;99.90;;;-144.05;85.01;56944.41;5072165;28;20036;-78
2023/03/24 05:43:07;;;;;;;4.20;2.08;;;11.80;99.90;;;-144.05;85.20;56942.28;5076542;28;20048;-75
2023/03/24 05:45:34;;;;;;;3.15;2.13;;;11.80;99.90;;;-144.05;84.55;56921.06;5076661;28;20036;-76
2023/03/24 05:48:00;;;;;;;3.22;2.53;;;11.80;99.90;;;-144.05;84.55;56938.03;5076357;28;20086;-77
2023/03/24 05:50:25;;;;;;;3.33;2.42;;;11.70;99.90;;;-144.05;84.34;56957.16;5056760;28;20029;-76
2023/03/24 05:52:51;;;;;;;8.45;2.97;;;11.80;99.90;;;-144.05;83.17;56938.03;5057367;28;20462;-77
2023/03/24 05:55:18;;;;;;;5.25;2.17;;;11.60;99.90;;;-144.05;82.84;56942.28;5058834;28;20115;-78
2023/03/24 05:57:45;;;;;;;8.20;2.40;;;11.50;99.90;;;-144.05;82.36;56942.28;5076452;28;20043;-79
2023/03/24 06:00:15;;;;;;;8.25;2.22;;;11.50;99.90;;;-144.05;81.05;56948.66;5077736;28;20029;-78
2023/03/24 06:02:45;;;;;;;4.10;1.70;;;11.50;99.90;;;-144.05;79.96;56950.78;5058591;28;20110;-78
2023/03/24 06:05:12;;;;;;;3.75;1.35;;;11.40;99.90;;;-144.05;77.71;56955.03;5059748;28;20396;-78
2023/03/24 06:07:43;;;;;;;5.10;1.50;;;11.30;99.90;;;-144.05;76.17;56942.28;5075079;28;20488;-78
2023/03/24 06:10:13;;;;;;;5.10;2.40;;;11.30;99.90;;;-144.05;75.95;56950.78;5075114;28;20032;-77
2023/03/24 06:12:40;;;;;;;5.25;2.00;;;11.20;99.90;;;-144.05;75.82;56959.28;5058469;28;20028;-77
2023/03/24 06:15:08;;;;;;;4.60;2.50;;;11.20;99.90;;;-144.05;75.36;56965.66;5059692;28;20408;-78
2023/03/24 06:17:36;;;;;;;4.40;2.00;;;11.20;99.90;;;-144.05;75.05;56974.16;5076348;28;20037;-77
2023/03/24 06:20:11;;;;;;;3.15;1.75;;;11.30;99.90;;;-144.05;73.92;56948.66;5061489;28;20483;-78
2023/03/24 06:22:37;;;;;;;8.70;1.67;;;11.20;99.90;;;-144.05;73.50;56931.66;5084409;28;20048;-77
2023/03/24 06:25:04;;;;;;;6.07;2.03;;;11.30;99.90;;;-144.05;72.57;56925.28;5090396;28;20025;-76
2023/03/24 06:27:30;;;;;;;4.65;1.98;;;11.30;99.90;;;-144.05;72.18;56952.91;5090636;28;20092;-78
2023/03/24 06:29:59;;;;;;;9.80;1.85;;;11.40;99.90;;;-144.05;72.12;56946.53;5072939;28;20028;-79
2023/03/24 06:32:26;;;;;;;5.80;1.67;;;11.40;99.90;;;-144.05;72.02;56940.16;5091104;28;20046;-78
2023/03/24 06:34:52;;;;;;;4.10;2.05;;;11.20;99.90;;;-144.05;72.17;56942.28;5091587;28;20097;-76
2023/03/24 06:37:21;;;;;;;6.05;2.35;;;11.10;99.90;;;-144.05;72.64;56959.28;5077519;28;20024;-74
2023/03/24 06:39:47;;;;;;;4.68;1.90;;;10.90;99.90;;;-144.05;72.53;56916.81;5061626;28;20027;-79
2023/03/24 06:42:13;;;;;;;7.65;2.58;;;10.90;99.90;;;-144.05;72.68;56940.16;5080532;28;20029;-77
2023/03/24 06:44:39;;;;;;;6.20;1.98;;;10.70;99.90;;;-144.05;72.96;56935.91;5081313;28;20158;-78
2023/03/24 06:47:05;;;;;;;13.65;2.63;;;10.60;99.90;;;-144.05;72.94;56942.28;5059710;28;20028;-78
2023/03/24 06:49:33;;;;;;;8.18;2.50;;;10.60;99.90;;;-144.05;73.25;56965.66;5077553;28;20040;-78
2023/03/24 06:52:03;;;;;;;7.53;2.33;;;10.50;99.90;;;-144.05;73.47;56955.03;5077395;28;20032;-76
2023/03/24 06:54:29;;;;;;;6.18;2.75;;;10.50;99.90;;;-144.05;72.37;56967.78;5058586;28;20039;-77
2023/03/24 06:56:55;;;;;;;8.80;2.33;;;10.60;99.90;;;-144.05;71.47;56946.53;5077640;28;20029;-79
2023/03/24 06:59:23;;;;;;;7.45;2.00;;;10.70;99.90;;;-144.05;72.24;56955.03;5078122;28;20034;-76
2023/03/24 07:01:52;;;;;;;5.88;2.00;;;10.60;99.90;;;-144.05;71.20;56933.78;5077481;28;20116;-76
2023/03/24 07:04:20;;;;;;;3.47;1.90;;;10.80;99.90;;;-144.05;70.68;56961.41;5075518;28;20028;-76
2023/03/24 07:06:49;;;;;;;5.55;1.88;;;11.10;99.90;;;-144.05;69.65;56931.66;5058708;28;20036;-76
2023/03/24 07:09:15;;;;;;;7.47;2.22;;;11.20;99.90;;;-144.05;69.66;56952.91;5077471;28;20484;-77
2023/03/24 07:11:41;;;;;;;5.03;1.48;;;11.30;99.90;;;-144.05;69.51;56950.78;5058794;28;20035;-78
2023/03/24 07:14:07;;;;;;;5.22;2.17;;;11.40;99.90;;;-144.05;69.11;56940.16;5077745;28;20036;-77
2023/03/24 07:16:33;;;;;;;4.70;1.95;;;11.30;99.90;;;-144.05;69.86;56955.03;5076892;28;20055;-77
2023/03/24 07:19:00;;;;;;;6.88;2.20;;;11.10;99.90;;;-144.05;70.32;56950.78;5058414;28;20039;-77
2023/03/24 07:21:25;;;;;;;6.22;1.98;;;11.10;99.90;;;-144.05;70.68;56955.03;5079590;28;20112;-77
2023/03/24 07:23:51;;;;;;;12.15;2.60;;;11.30;99.90;;;-144.05;70.34;56967.78;5078998;28;20067;-77
2023/03/24 07:26:17;;;;;;;6.00;2.08;;;11.40;99.90;;;-144.05;70.82;56950.78;5078119;28;20115;-76
2023/03/24 07:28:43;;;;;;;5.57;2.35;;;11.50;99.90;;;-144.05;70.82;56927.41;5081498;28;20044;-78
2023/03/24 07:31:11;;;;;;;7.30;2.00;;;11.40;99.90;;;-144.05;71.38;56940.16;5059808;28;20102;-77
2023/03/24 07:33:39;;;;;;;3.45;2.25;;;11.40;99.90;;;-144.05;72.66;56952.91;5078654;28;20032;-78
2023/03/24 07:36:06;;;;;;;6.20;2.58;;;11.20;99.90;;;-144.05;72.26;56950.78;5079076;28;20029;-76
2023/03/24 07:38:33;;;;;;;9.70;2.33;;;11.20;99.90;;;-144.05;71.66;56944.41;5076736;28;20029;-77
2023/03/24 07:41:00;;;;;;;9.05;2.55;;;11.20;99.90;;;-144.05;70.71;56938.03;5076524;28;20096;-77
2023/03/24 07:43:26;;;;;;;8.77;2.67;;;11.20;99.90;;;-144.05;70.92;56935.91;5058022;28;20052;-75
2023/03/24 07:45:52;;;;;;;12.48;2.33;;;11.40;99.90;;;-144.05;68.69;56944.41;5057564;28;20158;-77
2023/03/24 07:48:17;;;;;;;7.57;2.00;;;11.80;99.90;;;-144.05;66.59;56927.41;5057200;28;20075;-78
2023/03/24 07:50:43;;;;;;;8.23;2.05;;;12.00;99.90;;;-144.05;65.65;56967.78;5058093;28;20055;-77
2023/03/24 07:53:09;;;;;;;11.18;2.13;;;12.20;99.90;;;-144.05;65.01;56938.03;5077191;28;20404;-77
2023/03/24 07:55:37;;;;;;;8.10;1.88;;;12.40;99.90;;;-144.05;65.32;56921.06;5056926;28;20441;-77
2023/03/24 07:58:03;;;;;;;6.45;1.40;;;12.50;99.90;;;-144.05;63.18;56950.78;5074725;28;20447;-77
2023/03/24 08:00:31;;;;;;;17.33;3.25;;;12.40;99.90;;;-144.05;64.32;56946.53;5075245;28;20024;-77
2023/03/24 08:02:59;;;;;;;8.25;2.10;;;12.40;99.90;;;-144.05;63.02;56952.91;5076760;28;20020;-77
2023/03/24 08:05:29;;;;;;;13.02;2.40;;;12.60;99.90;;;-144.05;63.18;56933.78;5074089;28;20503;-77
2023/03/24 08:07:56;;;;;;;7.60;1.92;;;12.50;99.90;;;-144.05;62.70;56959.28;5075535;28;20032;-77
2023/03/24 08:10:28;;;;;;;6.38;1.63;;;12.60;99.90;;;-144.05;62.54;56931.66;5058102;28;20131;-77
2023/03/24 08:12:56;;;;;;;8.63;1.83;;;12.80;99.90;;;-144.05;61.53;56942.28;5075732;28;20398;-77
2023/03/24 08:15:23;;;;;;;9.32;2.38;;;12.90;99.90;;;-144.05;60.94;56938.03;5077939;28;20020;-76
2023/03/24 08:17:50;;;;;;;9.07;1.80;;;13.10;99.90;;;-144.05;60.16;56963.53;5075222;28;20111;-77
2023/03/24 08:20:18;;;;;;;9.20;1.50;;;13.20;99.90;;;-144.05;60.48;56921.06;5054946;28;20047;-77
2023/03/24 08:22:48;;;;;;;7.30;1.95;;;12.90;99.90;;;-144.05;61.85;56959.28;5056184;28;20376;-77
2023/03/24 08:25:18;;;;;;;8.05;1.60;;;12.60;99.90;;;-144.05;63.50;56938.03;5056988;28;20108;-77
2023/03/24 08:27:45;;;;;;;7.25;1.67;;;12.30;99.90;;;-144.05;62.53;56940.16;5073752;28;20025;-76
2023/03/24 08:30:20;;;;;;;11.73;1.90;;;12.40;99.90;;;-144.05;61.67;56940.16;5075325;28;20028;-77
2023/03/24 08:32:58;;;;;;;14.83;3.23;;;12.80;99.90;;;-144.05;60.03;56938.03;5074621;28;20032;-77
2023/03/24 08:35:32;;;;;;;10.30;1.50;;;13.20;99.90;;;-144.05;58.14;56969.91;5056846;28;20279;-76
2023/03/24 08:38:00;;;;;;;11.52;1.27;;;13.50;99.90;;;-144.05;59.63;56942.28;5074084;28;20043;-76
2023/03/24 08:40:30;;;;;;;8.13;1.50;;;13.40;99.90;;;-144.05;59.09;56938.03;5073582;28;20024;-77
2023/03/24 08:43:02;;;;;;;11.20;1.85;;;13.00;99.90;;;-144.05;59.42;56904.06;5056306;28;20062;-76
2023/03/24 08:45:31;;;;;;;6.85;1.70;;;13.00;99.90;;;-144.05;58.61;56925.28;5056844;28;20029;-78
2023/03/24 08:48:03;;;;;;;10.30;1.73;;;13.20;99.90;;;-144.05;58.08;56938.03;5073969;28;20025;-76
2023/03/24 08:50:37;;;;;;;7.43;1.30;;;13.60;99.90;;;-144.05;56.93;56946.53;5074633;28;20094;-75
2023/03/24 08:53:03;;;;;;;5.88;1.30;;;13.90;99.90;;;-144.05;57.81;56940.16;5074966;28;20530;-76
2023/03/24 08:55:29;;;;;;;6.43;1.67;;;14.00;99.90;;;-144.05;55.78;56931.66;5074111;28;20111;-77
2023/03/24 08:57:56;;;;;;;6.15;1.80;;;14.40;99.90;;;-144.05;56.73;56950.78;5056857;28;20120;-77
2023/03/24 09:00:24;;;;;;;8.73;2.13;;;13.70;99.90;;;-144.05;58.53;56972.03;5073896;28;20029;-76
2023/03/24 09:02:53;;;;;;;8.07;2.25;;;13.30;99.90;;;-144.05;57.27;56946.53;5075348;28;20024;-78
2023/03/24 09:05:22;;;;;;;10.68;1.95;;;13.50;99.90;;;-144.05;56.47;56944.41;5073151;28;20505;-77
2023/03/24 09:07:50;;;;;;;10.20;1.75;;;13.70;99.90;;;-144.05;56.88;56942.28;5073710;28;20040;-77
2023/03/24 09:10:16;;;;;;;6.88;2.20;;;13.70;99.90;;;-144.05;56.12;56925.28;5073287;28;20032;-77
2023/03/24 09:12:44;;;;;;;9.63;2.20;;;13.70;99.90;;;-144.05;56.18;56942.28;5075362;28;20028;-77
2023/03/24 09:15:12;;;;;;;7.07;1.67;;;13.80;99.90;;;-144.05;56.05;56944.41;5075344;28;20093;-77
2023/03/24 09:17:40;;;;;;;7.63;2.08;;;13.90;99.90;;;-144.05;56.71;56965.66;5072580;28;20368;-76
2023/03/24 09:20:12;;;;;;;11.15;1.85;;;13.80;99.90;;;-144.05;56.95;56942.28;5055975;28;20024;-77
2023/03/24 09:22:45;;;;;;;10.77;2.08;;;13.40;99.90;;;-144.05;57.56;56963.53;5056611;28;20447;-76
2023/03/24 09:25:19;;;;;;;10.80;2.03;;;13.30;99.90;;;-144.05;55.47;56923.19;5073819;28;20029;-78
2023/03/24 09:27:46;;;;;;;15.55;2.17;;;13.70;99.90;;;-144.05;55.02;56933.78;5075010;28;20021;-76
2023/03/24 09:30:16;;;;;;;9.43;2.30;;;14.10;99.90;;;-144.05;53.56;56923.19;5073746;28;20037;-77
2023/03/24 09:32:44;;;;;;;9.13;1.67;;;14.20;99.90;;;-144.05;53.95;56946.53;5056306;28;20037;-76
2023/03/24 09:35:11;;;;;;;5.32;1.48;;;14.20;99.90;;;-144.05;55.58;56961.41;5074828;28;20029;-77
2023/03/24 09:37:41;;;;;;;7.40;1.58;;;14.10;99.90;;;-144.05;55.05;56948.66;5056010;28;20035;-76
2023/03/24 09:40:25;;;;;;;9.68;1.98;;;14.50;99.90;;;-144.05;53.79;56944.41;5073403;28;20028;-77
2023/03/24 09:43:35;;;;;;;11.55;2.55;;;14.30;99.90;;;-144.05;56.01;56925.28;5073449;28;20032;-76
2023/03/24 09:46:32;;;;;;;9.55;2.40;;;14.20;99.90;;;-144.05;53.16;56927.41;5074326;28;20411;-77
2023/03/24 09:48:58;;;;;;;7.72;1.98;;;14.70;99.90;;;-144.05;53.85;56927.41;5071876;28;20064;-76
2023/03/24 09:51:42;;;;;;;10.93;2.20;;;14.60;99.90;;;-144.05;52.50;56927.41;5074253;28;20040;-79
2023/03/24 09:54:35;;;;;;;9.02;1.95;;;14.90;99.90;;;-144.05;50.95;56967.78;5073362;28;20036;-76
2023/03/24 09:57:03;;;;;;;10.77;2.28;;;15.20;99.90;;;-144.05;51.91;56957.16;5072884;28;20111;-76
2023/03/24 09:59:38;;;;;;;10.10;2.58;;;14.70;99.90;;;-144.05;50.72;56948.66;5073460;28;20028;-76
2023/03/24 10:02:18;;;;;;;12.80;2.60;;;14.60;99.90;;;-144.05;51.93;56957.16;5072548;28;20032;-77
2023/03/24 10:04:44;;;;;;;11.40;2.15;;;14.20;99.90;;;-144.05;53.67;56948.66;5073121;28;20064;-77
2023/03/24 10:07:45;;;;;;;9.60;2.72;;;13.70;99.90;;;-144.05;54.11;56927.41;5075693;28;20499;-77
2023/03/24 10:11:04;;;;;;;11.57;2.35;;;13.50;99.90;;;-144.05;52.60;56938.03;5074745;28;20028;-77
2023/03/24 10:13:49;;;;;;;5.47;1.80;;;13.80;99.90;;;-144.05;52.02;56961.41;5075336;28;20092;-77
2023/03/24 10:16:45;;;;;;;11.90;2.25;;;14.10;99.90;;;-144.05;52.31;56938.03;5074307;28;20040;-77
2023/03/24 10:20:01;;;;;;;7.22;2.15;;;14.30;99.90;;;-144.05;51.66;56944.41;5074223;28;20024;-77
2023/03/24 10:22:52;;;;;;;13.18;2.03;;;14.40;99.90;;;-144.05;52.68;56944.41;5073899;28;20113;-77
2023/03/24 10:25:36;;;;;;;11.52;2.30;;;14.30;99.90;;;-144.05;51.40;56942.28;5073409;28;20028;-77
2023/03/24 10:28:25;;;;;;;13.30;2.80;;;15.00;99.90;;;-144.05;50.77;56967.78;5075264;28;20028;-79
2023/03/24 10:31:01;;;;;;;9.85;1.67;;;14.90;99.90;;;-144.05;50.34;56931.66;5076266;28;20032;-77
2023/03/24 10:33:28;;;;;;;;;;;15.00;99.90;;;-144.05;49.55;56933.78;5077339;28;20140;-78
2023/03/24 10:36:18;;;;;;;8.40;1.52;;;15.30;99.90;;;-144.05;50.21;56955.03;5077846;28;19963;-75
2023/03/24 10:38:46;;;;;;;8.95;1.90;;;15.20;99.90;;;-144.05;51.57;56950.78;5075413;28;20117;-78